createdAt,value
2023-12-30T00:01:33.590Z,99446.02
2023-12-30T00:04:07.956Z,99442.15
2023-12-30T00:06:42.494Z,99450.27
2023-12-30T00:09:15.995Z,99452.95
2023-12-30T00:11:50.076Z,99447.97
2023-12-30T00:14:24.468Z,99449.80
2023-12-30T00:16:58.347Z,99451.49
2023-12-30T00:19:35.466Z,99449.92
2023-12-30T00:22:10.538Z,99451.42
2023-12-30T00:24:45.549Z,99448.15
2023-12-30T00:27:19.614Z,99436.50
2023-12-30T00:29:54.229Z,99445.44
2023-12-30T00:32:28.317Z,99441.52
2023-12-30T00:35:03.181Z,99436.54
2023-12-30T00:37:37.482Z,99434.77
2023-12-30T00:40:14.941Z,99441.05
2023-12-30T00:42:51.521Z,99437.67
2023-12-30T00:45:25.573Z,99437.06
2023-12-30T00:48:01.049Z,99438.13
2023-12-30T00:50:34.776Z,99437.48
2023-12-30T00:53:08.602Z,99442.25
2023-12-30T00:55:42.355Z,99440.45
2023-12-30T00:58:17.065Z,99443.80
2023-12-30T01:00:50.866Z,99450.58
2023-12-30T01:03:24.933Z,99448.11
2023-12-30T01:05:59.020Z,99452.36
2023-12-30T01:08:32.668Z,99448.20
2023-12-30T01:11:06.771Z,99446.16
2023-12-30T01:13:40.862Z,99441.48
2023-12-30T01:16:15.988Z,99444.52
2023-12-30T01:18:50.094Z,99443.88
2023-12-30T01:21:24.170Z,99440.55
2023-12-30T01:23:58.141Z,99440.10
2023-12-30T01:26:32.193Z,99438.84
2023-12-30T01:29:05.811Z,99441.33
2023-12-30T01:31:39.687Z,99439.85
2023-12-30T01:34:13.590Z,99428.20
2023-12-30T01:36:48.176Z,99421.34
2023-12-30T01:39:21.923Z,99415.48
2023-12-30T01:41:56.175Z,99411.21
2023-12-30T01:44:29.927Z,99415.53
2023-12-30T01:47:04.716Z,99412.92
2023-12-30T01:49:39.220Z,99409.73
2023-12-30T01:52:13.345Z,99409.09
2023-12-30T01:54:47.451Z,99412.28
2023-12-30T01:57:21.393Z,99412.11
2023-12-30T01:59:56.060Z,99416.27
2023-12-30T02:02:30.504Z,99413.36
2023-12-30T02:05:04.205Z,99410.42
2023-12-30T02:07:38.562Z,99405.34
2023-12-30T02:10:13.595Z,99397.21
2023-12-30T02:12:48.340Z,99392.91
2023-12-30T02:15:23.646Z,99385.47
2023-12-30T02:17:58.232Z,99378.49
2023-12-30T02:20:32.936Z,99373.92
2023-12-30T02:23:07.375Z,99372.58
2023-12-30T02:25:41.145Z,99373.27
2023-12-30T02:28:17.215Z,99375.14
2023-12-30T02:30:50.834Z,99379.64
2023-12-30T02:33:24.811Z,99378.11
2023-12-30T02:35:59.182Z,99376.23
2023-12-30T02:38:33.253Z,99364.96
2023-12-30T02:41:07.545Z,99370.58
2023-12-30T02:43:49.660Z,99379.13
2023-12-30T02:46:23.520Z,99390.06
2023-12-30T02:48:58.304Z,99391.63
2023-12-30T02:51:32.424Z,99396.50
2023-12-30T02:54:06.692Z,99393.94
2023-12-30T02:56:40.608Z,99385.33
2023-12-30T02:59:14.816Z,99384.27
2023-12-30T03:01:48.708Z,99383.52
2023-12-30T03:04:22.433Z,99375.09
2023-12-30T03:06:57.494Z,99374.56
2023-12-30T03:09:31.328Z,99376.45
2023-12-30T03:12:04.866Z,99378.35
2023-12-30T03:14:42.050Z,99377.74
2023-12-30T03:17:15.757Z,99378.02
2023-12-30T03:19:50.155Z,99380.61
2023-12-30T03:22:23.823Z,99379.30
2023-12-30T03:24:57.639Z,99373.64
2023-12-30T03:27:31.411Z,99369.51
2023-12-30T03:30:05.777Z,99374.75
2023-12-30T03:32:41.320Z,99374.47
2023-12-30T03:35:14.995Z,99374.93
2023-12-30T03:37:54.132Z,99377.30
2023-12-30T03:40:28.966Z,99371.63
2023-12-30T03:43:02.989Z,99367.59
2023-12-30T03:45:36.936Z,99375.48
2023-12-30T03:48:11.444Z,99378.42
2023-12-30T03:50:45.164Z,99378.31
2023-12-30T03:53:18.871Z,99380.55
2023-12-30T03:55:56.154Z,99387.21
2023-12-30T03:58:29.716Z,99388.28
2023-12-30T04:01:04.377Z,99390.89
2023-12-30T04:03:38.061Z,99388.23
2023-12-30T04:06:20.826Z,99395.96
2023-12-30T04:08:54.835Z,99404.08
2023-12-30T04:11:28.404Z,99406.48
2023-12-30T04:14:04.962Z,99409.16
2023-12-30T04:16:38.566Z,99413.92
2023-12-30T04:19:17.901Z,99413.46
2023-12-30T04:21:52.092Z,99414.44
2023-12-30T04:24:26.378Z,99421.23
2023-12-30T04:27:00.309Z,99420.55
2023-12-30T04:29:39.064Z,99425.25
2023-12-30T04:32:13.219Z,99427.76
2023-12-30T04:34:46.985Z,99434.21
2023-12-30T04:37:22.273Z,99432.20
2023-12-30T04:40:01.338Z,99446.48
2023-12-30T04:42:34.804Z,99463.78
2023-12-30T04:45:14.248Z,99481.50
2023-12-30T04:47:49.356Z,99497.89
2023-12-30T04:50:24.838Z,99497.73
2023-12-30T04:52:59.655Z,99481.01
2023-12-30T04:55:33.487Z,99475.84
2023-12-30T04:58:07.369Z,99493.48
2023-12-30T05:00:57.782Z,99504.09
2023-12-30T05:03:31.790Z,99507.27
2023-12-30T05:06:06.073Z,99510.66
2023-12-30T05:08:40.806Z,99508.88
2023-12-30T05:11:17.602Z,99510.48
2023-12-30T05:14:05.615Z,99512.36
2023-12-30T05:16:47.428Z,99504.92
2023-12-30T05:19:21.365Z,99505.85
2023-12-30T05:21:55.953Z,99498.40
2023-12-30T05:24:29.918Z,99498.04
2023-12-30T05:27:04.561Z,99487.93
2023-12-30T05:29:37.872Z,99474.84
2023-12-30T05:32:11.327Z,99468.73
2023-12-30T05:34:44.774Z,99466.52
2023-12-30T05:37:18.479Z,99462.16
2023-12-30T05:39:52.514Z,99461.13
2023-12-30T05:42:27.295Z,99460.93
2023-12-30T05:45:01.089Z,99469.18
2023-12-30T05:47:34.658Z,99477.80
2023-12-30T05:50:10.358Z,99477.55
2023-12-30T05:52:49.938Z,99479.56
2023-12-30T05:55:24.069Z,99487.34
2023-12-30T05:57:57.811Z,99489.67
2023-12-30T06:00:31.483Z,99489.83
2023-12-30T06:03:05.454Z,99486.27
2023-12-30T06:05:39.543Z,99482.44
2023-12-30T06:08:13.032Z,99483.80
2023-12-30T06:10:50.901Z,99480.40
2023-12-30T06:13:24.594Z,99491.61
2023-12-30T06:15:58.784Z,99492.15
2023-12-30T06:18:33.568Z,99500.42
2023-12-30T06:21:07.698Z,99503.23
2023-12-30T06:23:41.470Z,99504.64
2023-12-30T06:26:14.734Z,99500.70
2023-12-30T06:28:49.625Z,99510.39
2023-12-30T06:31:23.779Z,99525.45
2023-12-30T06:34:00.227Z,99530.81
2023-12-30T06:36:34.195Z,99545.92
2023-12-30T06:39:07.778Z,99558.01
2023-12-30T06:41:41.824Z,99556.52
2023-12-30T06:44:15.591Z,99566.21
2023-12-30T06:46:49.436Z,99578.02
2023-12-30T06:49:23.266Z,99576.27
2023-12-30T06:51:57.263Z,99574.09
2023-12-30T06:54:30.874Z,99577.71
2023-12-30T06:57:04.436Z,99580.79
2023-12-30T06:59:38.436Z,99597.81
2023-12-30T07:02:12.481Z,99604.10
2023-12-30T07:04:46.398Z,99609.05
2023-12-30T07:07:20.213Z,99608.78
2023-12-30T07:09:53.850Z,99625.23
2023-12-30T07:12:27.471Z,99637.77
2023-12-30T07:15:02.084Z,99667.86
2023-12-30T07:17:35.890Z,99695.60
2023-12-30T07:20:11.285Z,99710.80
2023-12-30T07:22:44.801Z,99721.49
2023-12-30T07:25:19.082Z,99727.98
2023-12-30T07:27:53.815Z,99739.08
2023-12-30T07:30:27.538Z,99739.61
2023-12-30T07:33:01.701Z,99737.05
2023-12-30T07:35:35.359Z,99738.86
2023-12-30T07:38:08.886Z,99744.99
2023-12-30T07:40:42.841Z,99744.14
2023-12-30T07:43:17.253Z,99752.59
2023-12-30T07:45:50.595Z,99746.67
2023-12-30T07:48:34.639Z,99742.96
2023-12-30T07:51:13.217Z,99753.70
2023-12-30T07:53:59.286Z,99748.31
2023-12-30T07:56:37.912Z,99757.12
2023-12-30T07:59:12.826Z,99764.92
2023-12-30T08:01:47.787Z,99769.88
2023-12-30T08:04:22.305Z,99780.40
2023-12-30T08:06:57.679Z,99792.57
2023-12-30T08:09:33.009Z,99789.00
2023-12-30T08:12:07.118Z,99790.26
2023-12-30T08:14:41.479Z,99789.88
2023-12-30T08:17:16.549Z,99791.61
2023-12-30T08:19:50.313Z,99776.45
2023-12-30T08:22:24.981Z,99771.91
2023-12-30T08:25:00.676Z,99775.05
2023-12-30T08:27:35.387Z,99759.64
2023-12-30T08:30:13.011Z,99741.30
2023-12-30T08:32:47.233Z,99745.83
2023-12-30T08:35:22.588Z,99747.98
2023-12-30T08:37:56.568Z,99752.05
2023-12-30T08:40:33.163Z,99762.02
2023-12-30T08:43:09.118Z,99764.95
2023-12-30T08:45:43.620Z,99763.84
2023-12-30T08:48:18.215Z,99765.38
2023-12-30T08:50:53.618Z,99772.21
2023-12-30T08:53:29.136Z,99773.55
2023-12-30T08:56:04.366Z,99783.58
2023-12-30T08:58:39.566Z,99788.71
2023-12-30T09:01:14.077Z,99790.02
2023-12-30T09:03:47.945Z,99790.69
2023-12-30T09:06:21.732Z,99799.00
2023-12-30T09:08:56.268Z,99800.45
2023-12-30T09:11:30.281Z,99800.52
2023-12-30T09:14:04.326Z,99803.12
2023-12-30T09:16:38.779Z,99808.67
2023-12-30T09:19:12.914Z,99810.66
2023-12-30T09:21:46.952Z,99816.15
2023-12-30T09:24:21.334Z,99817.55
2023-12-30T09:26:55.440Z,99815.29
2023-12-30T09:29:30.097Z,99821.89
2023-12-30T09:32:04.342Z,99828.91
2023-12-30T09:34:42.101Z,99830.73
2023-12-30T09:37:20.144Z,99829.30
2023-12-30T09:39:55.310Z,99833.52
2023-12-30T09:42:30.408Z,99827.14
2023-12-30T09:45:04.841Z,99823.46
2023-12-30T09:47:39.636Z,99826.34
2023-12-30T09:50:14.444Z,99831.27
2023-12-30T09:52:48.457Z,99830.42
2023-12-30T09:55:22.290Z,99828.41
2023-12-30T09:57:56.570Z,99825.98
2023-12-30T10:00:33.775Z,99821.05
2023-12-30T10:03:08.367Z,99827.77
2023-12-30T10:05:44.699Z,99824.85
2023-12-30T10:08:19.060Z,99822.30
2023-12-30T10:10:55.242Z,99827.16
2023-12-30T10:13:29.747Z,99836.38
2023-12-30T10:16:06.676Z,99830.68
2023-12-30T10:18:41.314Z,99828.61
2023-12-30T10:21:15.610Z,99828.04
2023-12-30T10:23:53.076Z,99827.72
2023-12-30T10:26:27.314Z,99828.10
2023-12-30T10:29:01.084Z,99828.73
2023-12-30T10:31:34.963Z,99838.44
2023-12-30T10:34:09.867Z,99839.13
2023-12-30T10:36:45.174Z,99839.71
2023-12-30T10:39:22.443Z,99843.02
2023-12-30T10:41:58.591Z,99838.80
2023-12-30T10:44:32.482Z,99840.17
2023-12-30T10:47:08.302Z,99843.27
2023-12-30T10:49:43.583Z,99844.53
2023-12-30T10:52:19.030Z,99854.70
2023-12-30T10:55:02.528Z,99856.08
2023-12-30T10:57:40.431Z,99861.02
2023-12-30T11:00:17.190Z,99862.89
2023-12-30T11:02:51.732Z,99868.16
2023-12-30T11:05:31.159Z,99871.55
2023-12-30T11:08:12.178Z,99875.92
2023-12-30T11:10:53.283Z,99876.95
2023-12-30T11:13:28.439Z,99882.23
2023-12-30T11:16:17.516Z,99881.91
2023-12-30T11:18:55.623Z,99885.41
2023-12-30T11:22:35.689Z,99882.70
2023-12-30T11:25:24.082Z,99885.71
2023-12-30T11:28:02.634Z,99884.61
2023-12-30T11:30:38.254Z,99882.35
2023-12-30T11:33:13.855Z,99879.31
2023-12-30T11:35:49.996Z,99884.01
2023-12-30T11:38:26.274Z,99880.59
2023-12-30T11:41:05.700Z,99887.75
2023-12-30T11:43:41.526Z,99882.84
2023-12-30T11:46:16.877Z,99876.92
2023-12-30T11:48:54.311Z,99878.54
2023-12-30T11:51:31.163Z,99876.30
2023-12-30T11:54:07.734Z,99876.42
2023-12-30T11:56:44.322Z,99876.91
2023-12-30T11:59:19.105Z,99876.54
2023-12-30T12:01:54.820Z,99872.39
2023-12-30T12:04:31.650Z,99869.26
2023-12-30T12:07:08.001Z,99873.42
2023-12-30T12:09:45.028Z,99875.61
2023-12-30T12:12:26.151Z,99876.84
2023-12-30T12:15:05.546Z,99873.17
2023-12-30T12:17:41.569Z,99869.82
2023-12-30T12:23:05.278Z,99867.29
2023-12-30T12:25:40.546Z,99868.08
2023-12-30T12:28:18.325Z,99865.86
2023-12-30T12:30:53.790Z,99870.02
2023-12-30T12:33:29.160Z,99869.21
2023-12-30T12:36:07.715Z,99869.68
2023-12-30T12:38:43.032Z,99874.15
2023-12-30T12:41:18.226Z,99872.16
2023-12-30T12:43:54.043Z,99865.75
2023-12-30T12:46:30.029Z,99861.56
2023-12-30T12:49:06.707Z,99862.83
2023-12-30T12:51:42.704Z,99861.48
2023-12-30T12:54:20.551Z,99868.58
2023-12-30T12:56:55.672Z,99864.30
2023-12-30T12:59:30.709Z,99860.83
2023-12-30T13:02:06.349Z,99861.66
2023-12-30T13:04:43.040Z,99865.02
2023-12-30T13:07:18.207Z,99863.70
2023-12-30T13:10:00.999Z,99858.59
2023-12-30T13:12:36.030Z,99853.33
2023-12-30T13:15:17.434Z,99860.23
2023-12-30T13:17:52.684Z,99858.05
2023-12-30T13:20:28.734Z,99860.95
2023-12-30T13:23:07.169Z,99868.22
2023-12-30T13:25:41.678Z,99866.46
2023-12-30T13:28:17.502Z,99863.29
2023-12-30T13:30:52.699Z,99866.86
2023-12-30T13:33:27.765Z,99864.52
2023-12-30T13:36:06.265Z,99864.46
2023-12-30T13:38:45.635Z,99865.07
2023-12-30T13:41:24.456Z,99868.37
2023-12-30T13:44:00.426Z,99868.16
2023-12-30T13:46:51.625Z,99872.66
2023-12-30T13:50:01.115Z,99873.19
2023-12-30T13:52:38.473Z,99869.30
2023-12-30T13:55:16.786Z,99868.77
2023-12-30T13:57:54.620Z,99874.62
2023-12-30T14:00:30.228Z,99874.73
2023-12-30T14:03:08.538Z,99878.95
2023-12-30T14:05:47.382Z,99887.02
2023-12-30T14:08:51.625Z,99888.98
2023-12-30T14:11:36.199Z,99894.15
2023-12-30T14:14:13.723Z,99895.27
2023-12-30T14:16:49.091Z,99889.60
2023-12-30T14:19:24.186Z,99896.74
2023-12-30T14:22:01.307Z,99904.14
2023-12-30T14:24:36.879Z,99914.00
2023-12-30T14:27:13.600Z,99909.23
2023-12-30T14:29:50.363Z,99910.65
2023-12-30T14:32:25.522Z,99914.51
2023-12-30T14:35:00.150Z,99909.63
2023-12-30T14:37:37.862Z,99911.14
2023-12-30T14:40:14.572Z,99904.79
2023-12-30T14:42:50.599Z,99894.43
2023-12-30T14:45:25.597Z,99901.39
2023-12-30T14:48:01.560Z,99912.03
2023-12-30T14:50:36.027Z,99912.77
2023-12-30T14:53:12.713Z,99915.73
2023-12-30T14:55:49.962Z,99918.29
2023-12-30T14:58:27.857Z,99921.38
2023-12-30T15:01:02.974Z,99918.77
2023-12-30T15:03:42.280Z,99920.89
2023-12-30T15:06:17.134Z,99927.30
2023-12-30T15:08:53.359Z,99918.00
2023-12-30T15:11:28.627Z,99921.14
2023-12-30T15:14:06.259Z,99925.61
2023-12-30T15:16:41.875Z,99934.60
2023-12-30T15:19:19.597Z,99934.68
2023-12-30T15:21:54.534Z,99938.66
2023-12-30T15:24:28.730Z,99933.75
2023-12-30T15:27:03.864Z,99934.87
2023-12-30T15:29:37.869Z,99935.27
2023-12-30T15:32:13.203Z,99934.16
2023-12-30T15:34:47.758Z,99935.16
2023-12-30T15:37:22.671Z,99938.88
2023-12-30T15:39:56.857Z,99937.45
2023-12-30T15:42:38.010Z,99940.48
2023-12-30T15:45:13.487Z,99943.29
2023-12-30T15:47:49.865Z,99941.72
2023-12-30T15:50:27.315Z,99946.81
2023-12-30T15:53:01.514Z,99949.02
2023-12-30T15:55:35.605Z,99951.04
2023-12-30T15:58:09.755Z,99955.39
2023-12-30T16:00:43.827Z,99957.02
2023-12-30T16:03:18.116Z,99959.43
2023-12-30T16:05:52.594Z,99961.04
2023-12-30T16:08:27.048Z,99960.84
2023-12-30T16:11:01.158Z,99962.97
2023-12-30T16:13:36.252Z,99962.27
2023-12-30T16:16:11.145Z,99965.13
2023-12-30T16:18:45.632Z,99967.48
2023-12-30T16:21:19.946Z,99970.15
2023-12-30T16:23:55.372Z,99977.10
2023-12-30T16:26:30.309Z,99979.46
2023-12-30T16:29:04.776Z,99983.87
2023-12-30T16:31:40.017Z,99984.40
2023-12-30T16:34:14.752Z,99986.76
2023-12-30T16:36:49.039Z,99983.29
2023-12-30T16:39:25.362Z,99979.75
2023-12-30T16:41:59.192Z,99980.62
2023-12-30T16:44:33.192Z,99983.73
2023-12-30T16:47:07.684Z,99982.05
2023-12-30T16:49:41.860Z,99972.34
2023-12-30T16:52:15.909Z,99977.01
2023-12-30T16:54:50.486Z,99976.23
2023-12-30T16:57:24.314Z,99980.71
2023-12-30T16:59:58.852Z,99987.25
2023-12-30T17:02:32.632Z,99990.83
2023-12-30T17:05:07.459Z,99994.29
2023-12-30T17:07:41.748Z,100004.34
2023-12-30T17:10:15.470Z,99999.83
2023-12-30T17:12:50.501Z,100001.48
2023-12-30T17:15:25.456Z,100004.00
2023-12-30T17:17:59.885Z,100001.79
2023-12-30T17:20:35.629Z,100002.29
2023-12-30T17:23:09.914Z,100002.27
2023-12-30T17:25:43.981Z,100002.20
2023-12-30T17:28:19.885Z,100007.44
2023-12-30T17:30:55.080Z,100015.70
2023-12-30T17:33:29.571Z,100018.93
2023-12-30T17:36:04.342Z,100019.45
2023-12-30T17:38:38.551Z,100021.91
2023-12-30T17:41:13.073Z,100020.04
2023-12-30T17:43:51.143Z,100017.79
2023-12-30T17:46:26.063Z,100018.36
2023-12-30T17:49:00.762Z,100021.58
2023-12-30T17:51:35.108Z,100021.48
2023-12-30T17:54:10.544Z,100026.09
2023-12-30T17:56:46.570Z,100027.82
2023-12-30T17:59:24.262Z,100027.74
2023-12-30T18:01:59.510Z,100028.11
2023-12-30T18:04:33.418Z,100032.63
2023-12-30T18:07:08.080Z,100035.38
2023-12-30T18:09:46.908Z,100038.77
2023-12-30T18:12:21.980Z,100041.15
2023-12-30T18:14:56.074Z,100044.54
2023-12-30T18:17:31.949Z,100044.30
2023-12-30T18:20:06.360Z,100040.77
2023-12-30T18:22:41.965Z,100045.14
2023-12-30T18:25:16.933Z,100045.07
2023-12-30T18:27:50.941Z,100051.20
2023-12-30T18:30:25.425Z,100047.44
2023-12-30T18:33:00.915Z,100048.36
2023-12-30T18:35:36.055Z,100048.66
2023-12-30T18:38:11.925Z,100045.99
2023-12-30T18:40:46.393Z,100050.27
2023-12-30T18:43:21.692Z,100051.62
2023-12-30T18:45:55.898Z,100051.45
2023-12-30T18:48:31.772Z,100055.50
2023-12-30T18:51:06.450Z,100054.30
2023-12-30T18:53:41.098Z,100053.50
2023-12-30T18:56:15.090Z,100054.29
2023-12-30T18:58:49.807Z,100056.57
2023-12-30T19:01:26.624Z,100055.23
2023-12-30T19:04:03.677Z,100057.98
2023-12-30T19:06:37.902Z,100057.84
2023-12-30T19:09:14.577Z,100054.91
2023-12-30T19:11:50.274Z,100053.48
2023-12-30T19:14:25.225Z,100050.88
2023-12-30T19:16:59.674Z,100051.67
2023-12-30T19:19:33.497Z,100058.25
2023-12-30T19:22:08.825Z,100060.58
2023-12-30T19:24:42.853Z,100064.39
2023-12-30T19:27:16.775Z,100067.30
2023-12-30T19:29:51.056Z,100069.55
2023-12-30T19:32:27.623Z,100072.87
2023-12-30T19:35:03.133Z,100078.02
2023-12-30T19:37:37.475Z,100075.09
2023-12-30T19:40:14.659Z,100067.29
2023-12-30T19:42:49.031Z,100068.26
2023-12-30T19:45:24.252Z,100068.79
2023-12-30T19:47:59.028Z,100068.68
2023-12-30T19:50:34.345Z,100068.57
2023-12-30T19:53:08.683Z,100066.93
2023-12-30T19:55:42.922Z,100068.71
2023-12-30T19:58:16.769Z,100075.20
2023-12-30T20:00:51.189Z,100070.30
2023-12-30T20:03:25.881Z,100068.10
2023-12-30T20:06:01.012Z,100072.44
2023-12-30T20:08:36.169Z,100070.97
2023-12-30T20:11:11.123Z,100066.45
2023-12-30T20:13:49.849Z,100071.20
2023-12-30T20:16:24.222Z,100065.50
2023-12-30T20:19:02.439Z,100066.05
2023-12-30T20:21:36.527Z,100062.48
2023-12-30T20:24:13.915Z,100066.86
2023-12-30T20:26:49.827Z,100068.17
2023-12-30T20:29:23.845Z,100065.46
2023-12-30T20:31:57.914Z,100064.88
2023-12-30T20:34:35.434Z,100064.91
2023-12-30T20:37:10.111Z,100068.10
2023-12-30T20:39:44.174Z,100072.13
2023-12-30T20:42:20.034Z,100072.06
2023-12-30T20:44:54.509Z,100069.58
2023-12-30T20:47:29.928Z,100068.20
2023-12-30T20:50:09.918Z,100067.56
2023-12-30T20:52:45.839Z,100072.04
2023-12-30T20:55:24.833Z,100074.45
2023-12-30T20:58:00.910Z,100075.21
2023-12-30T21:00:37.685Z,100081.60
2023-12-30T21:03:11.714Z,100080.88
2023-12-30T21:05:46.346Z,100082.98
2023-12-30T21:08:20.304Z,100076.33
2023-12-30T21:10:54.604Z,100074.83
2023-12-30T21:13:28.744Z,100073.36
2023-12-30T21:16:03.250Z,100069.54
2023-12-30T21:18:40.359Z,100069.52
2023-12-30T21:21:13.965Z,100070.82
2023-12-30T21:23:49.544Z,100066.69
2023-12-30T21:26:24.524Z,100068.09
2023-12-30T21:28:59.219Z,100068.09
2023-12-30T21:31:33.173Z,100075.38
2023-12-30T21:34:13.827Z,100084.16
2023-12-30T21:36:47.661Z,100086.21
2023-12-30T21:39:22.726Z,100089.36
2023-12-30T21:41:56.917Z,100089.44
2023-12-30T21:44:31.002Z,100083.80
2023-12-30T21:47:05.336Z,100078.61
2023-12-30T21:49:42.810Z,100081.26
2023-12-30T21:52:18.089Z,100084.70
2023-12-30T21:54:52.117Z,100090.33
2023-12-30T21:57:25.985Z,100092.33
2023-12-30T22:00:01.197Z,100092.23
2023-12-30T22:02:39.526Z,100084.67
2023-12-30T22:05:15.065Z,100087.31
2023-12-30T22:07:49.136Z,100090.83
2023-12-30T22:10:23.418Z,100089.82
2023-12-30T22:12:58.006Z,100086.53
2023-12-30T22:15:31.792Z,100087.06
2023-12-30T22:18:06.649Z,100088.70
2023-12-30T22:20:41.023Z,100093.83
2023-12-30T22:23:15.170Z,100095.44
2023-12-30T22:25:49.252Z,100093.92
2023-12-30T22:28:23.930Z,100087.67
2023-12-30T22:30:59.471Z,100089.56
2023-12-30T22:33:36.334Z,100091.35
2023-12-30T22:36:11.145Z,100098.29
2023-12-30T22:38:45.393Z,100097.41
2023-12-30T22:41:21.190Z,100097.51
2023-12-30T22:44:05.369Z,100092.52
2023-12-30T22:46:47.550Z,100087.48
2023-12-30T22:49:22.001Z,100089.02
2023-12-30T22:51:56.659Z,100084.61
2023-12-30T22:54:31.860Z,100081.48
2023-12-30T22:57:09.927Z,100081.73
2023-12-30T22:59:50.030Z,100085.11
2023-12-30T23:02:24.370Z,100083.65
2023-12-30T23:04:58.357Z,100085.77
2023-12-30T23:07:32.607Z,100083.88
2023-12-30T23:10:08.825Z,100085.10
2023-12-30T23:12:43.717Z,100088.74
2023-12-30T23:15:22.270Z,100088.09
2023-12-30T23:18:00.166Z,100083.79
2023-12-30T23:20:34.390Z,100078.45
2023-12-30T23:23:09.518Z,100075.56
2023-12-30T23:25:43.880Z,100073.45
2023-12-30T23:28:20.639Z,100077.80
2023-12-30T23:30:55.734Z,100077.52
2023-12-30T23:33:30.178Z,100079.41
2023-12-30T23:36:04.595Z,100076.30
2023-12-30T23:38:38.718Z,100076.23
2023-12-30T23:41:12.503Z,100079.30
2023-12-30T23:43:46.490Z,100078.27
2023-12-30T23:46:20.566Z,100080.17
2023-12-30T23:48:57.533Z,100077.39
2023-12-30T23:51:32.360Z,100077.56
2023-12-30T23:54:06.678Z,100068.39
2023-12-30T23:56:47.562Z,100063.51
2023-12-30T23:59:21.872Z,100059.48
